Punta Gorda, FL

01:22 AM EDT em 31 de Julho de 2016 (GMT -0400)
Charlotte County | | Change Station

Elev 26 ft 26.92 °N, 81.99 °W | Updated 29 minutes ago

Clear
Céu Limpo
76 °F
Aparente 76 °F
N
5
Vento Variável Vento de NE

Hoje
Máxima -- | Mínima -- °F
--% Possibilidade de Precip.
Ontem
Máxima -- | Mínima -- °F
Precip. -- pol
Pressão 30.08 pol
Visibilidade 10.0 milhas
Nuvens Céu Limpo
Ponto de Orvalho 74 °F
Humidade 94%
Chuva 0.00 pol
Altura de Neve Não disponível
6:52 AM 8:16 PM
Quarto minguante, 8% visible
METAR KPGD 310453Z 05004KT 10SM CLR 24/23 A3008 RMK AO2 SLP185 T02440233 403390244
Pressão 30.08 pol
Visibilidade 10.0 milhas
Nuvens Céu Limpo
Ponto de Orvalho 74 °F
Humidade 94%
Chuva 0.00 pol
Altura de Neve Não disponível
6:52 AM 8:16 PM
Quarto minguante, 8% visible
METAR KPGD 310453Z 05004KT 10SM CLR 24/23 A3008 RMK AO2 SLP185 T02440233 403390244

10-Day Weather Forecast

Almanac

Astronomia

Jul. 31, 2016 Nascer Pôr
Hora atual
Crepúsculo civil
Crepúsculo náutico
Crepúsculo astronómico
Lua
Comprimento da luz visível
Duração do Dia
Tomorrow will be .
, % of the Moon is Illuminated

Extremos de Hoje

situação na parte mais alta situação na parte mais baixa

Community

WunderPhotos

Upload Photos

1,928,764 fotografias inseridas!

WunderBlog® & News

Nearby

Qualidade do Ar

  Qualidade do Ar Índice da Q.A. Poluente
Not available.

Altura da Neve

Estação altura Altitude

Actividade Sísmisca

Cidade Distância Mag. Hora & Data
Mínima magnitude apresentada é 2.5.

Temperaturas das Águas Costeiras

Local Temperatura

Stations

Estações Meteorológicas Próximas

Localização da Estação Temp. Sensação Térmica Ponto de Orvalho Humidade Vento Precip. Elev Actualizado Tipo
                   

Watches & Warnings

There are currently no watches in effect.